createdAt,value
2022-10-26T00:02:52.319Z,3.00
2022-10-26T00:07:45.754Z,3.20
2022-10-26T00:12:36.107Z,2.87
2022-10-26T00:17:26.537Z,3.25
2022-10-26T00:22:17.531Z,3.25
2022-10-26T00:27:13.688Z,3.03
2022-10-26T00:32:04.386Z,2.90
2022-10-26T00:36:54.871Z,3.45
2022-10-26T00:41:46.162Z,3.30
2022-10-26T00:46:41.525Z,3.38
2022-10-26T00:51:36.203Z,3.47
2022-10-26T00:56:27.103Z,3.38
2022-10-26T01:01:18.441Z,3.38
2022-10-26T01:06:16.923Z,3.45
2022-10-26T01:11:08.619Z,3.50
2022-10-26T01:16:09.882Z,3.50
2022-10-26T01:21:47.621Z,3.30
2022-10-26T01:27:04.359Z,3.35
2022-10-26T01:32:03.483Z,2.58
2022-10-26T01:36:58.486Z,3.20
2022-10-26T01:41:51.920Z,2.97
2022-10-26T01:46:46.515Z,3.13
2022-10-26T01:51:41.647Z,2.70
2022-10-26T01:56:37.102Z,2.97
2022-10-26T02:01:44.447Z,3.08
2022-10-26T02:06:47.378Z,2.85
2022-10-26T02:11:43.669Z,2.70
2022-10-26T02:16:40.914Z,3.05
2022-10-26T02:21:38.874Z,2.92
2022-10-26T02:26:34.074Z,2.92
2022-10-26T02:31:27.575Z,2.60
2022-10-26T02:36:21.220Z,2.78
2022-10-26T02:41:13.882Z,2.95
2022-10-26T02:46:11.802Z,3.05
2022-10-26T02:51:06.359Z,2.70
2022-10-26T02:55:57.021Z,2.80
2022-10-26T03:00:49.059Z,3.10
2022-10-26T03:05:45.750Z,3.25
2022-10-26T03:10:37.067Z,2.50
2022-10-26T03:15:27.630Z,2.42
2022-10-26T03:20:18.447Z,2.50
2022-10-26T03:25:12.023Z,2.20
2022-10-26T03:30:08.488Z,3.37
2022-10-26T03:34:58.370Z,2.70
2022-10-26T03:39:48.210Z,2.58
2022-10-26T03:44:40.471Z,2.40
2022-10-26T03:49:31.265Z,2.92
2022-10-26T03:54:21.771Z,2.88
2022-10-26T03:59:11.454Z,2.83
2022-10-26T04:04:03.820Z,2.97
2022-10-26T04:08:58.276Z,3.25
2022-10-26T04:13:47.991Z,3.10
2022-10-26T04:18:37.705Z,3.17
2022-10-26T04:23:30.411Z,2.83
2022-10-26T04:28:20.447Z,3.10
2022-10-26T04:33:11.031Z,3.22
2022-10-26T04:38:02.405Z,2.90
2022-10-26T04:42:55.915Z,3.03
2022-10-26T04:47:46.226Z,2.60
2022-10-26T04:52:36.134Z,2.75
2022-10-26T04:57:25.769Z,2.60
2022-10-26T05:02:18.055Z,2.75
2022-10-26T05:07:07.975Z,2.97
2022-10-26T05:11:58.895Z,2.47
2022-10-26T05:16:48.801Z,2.40
2022-10-26T05:21:41.543Z,2.58
2022-10-26T05:26:34.746Z,2.53
2022-10-26T05:31:26.038Z,2.15
2022-10-26T05:36:16.676Z,2.00
2022-10-26T05:41:09.067Z,1.83
2022-10-26T05:45:58.919Z,1.90
2022-10-26T05:50:49.580Z,1.38
2022-10-26T05:55:41.892Z,1.35
2022-10-26T06:00:36.357Z,1.70
2022-10-26T06:05:30.371Z,1.10
2022-10-26T06:10:32.565Z,1.08
2022-10-26T06:15:24.899Z,0.95
2022-10-26T06:20:35.172Z,0.90
2022-10-26T06:25:32.650Z,1.00
2022-10-26T06:30:23.428Z,1.10
2022-10-26T06:35:25.745Z,1.10
2022-10-26T06:40:19.417Z,0.93
2022-10-26T06:50:38.029Z,0.90
2022-10-26T06:55:28.099Z,1.10
2022-10-26T07:00:23.218Z,1.33
2022-10-26T07:05:13.052Z,1.00
2022-10-26T07:10:07.152Z,1.08
2022-10-26T07:14:56.865Z,1.63
2022-10-26T07:19:46.540Z,1.20
2022-10-26T07:24:36.652Z,0.80
2022-10-26T07:29:30.088Z,1.10
2022-10-26T07:34:20.637Z,1.20
2022-10-26T07:39:10.905Z,1.30
2022-10-26T07:44:00.859Z,1.42
2022-10-26T07:48:53.363Z,1.10
2022-10-26T07:53:43.493Z,1.70
2022-10-26T07:58:33.474Z,1.10
2022-10-26T08:03:24.244Z,1.27
2022-10-26T08:08:16.927Z,0.95
2022-10-26T08:13:06.723Z,1.10
2022-10-26T08:17:56.374Z,1.10
2022-10-26T08:22:46.495Z,1.17
2022-10-26T08:27:43.010Z,1.55
2022-10-26T08:32:32.874Z,1.10
2022-10-26T08:37:22.945Z,0.90
2022-10-26T08:42:20.022Z,1.13
2022-10-26T08:52:10.166Z,1.27
2022-10-26T08:57:03.002Z,1.30
2022-10-26T09:01:52.700Z,1.20
2022-10-26T09:06:58.943Z,0.70
2022-10-26T09:12:03.567Z,0.98
2022-10-26T09:17:08.469Z,0.90
2022-10-26T09:22:10.103Z,0.85
2022-10-26T09:32:20.661Z,0.85
2022-10-26T09:37:21.359Z,1.25
2022-10-26T09:42:19.160Z,0.80
2022-10-26T09:47:17.171Z,1.05
2022-10-26T09:52:07.093Z,1.17
2022-10-26T09:57:02.931Z,1.08
2022-10-26T10:01:55.743Z,0.80
2022-10-26T10:06:46.659Z,1.10
2022-10-26T10:11:41.906Z,1.35
2022-10-26T10:16:34.198Z,1.05
2022-10-26T10:21:24.533Z,1.23
2022-10-26T10:26:14.383Z,1.02
2022-10-26T10:31:07.216Z,1.10
2022-10-26T10:36:00.622Z,1.23
2022-10-26T10:40:56.385Z,1.10
2022-10-26T10:45:52.001Z,1.30
2022-10-26T10:50:55.191Z,0.90
2022-10-26T10:56:14.163Z,0.90
2022-10-26T11:01:04.931Z,0.60
2022-10-26T11:06:09.458Z,0.80
2022-10-26T11:11:08.347Z,0.60
2022-10-26T11:16:03.567Z,1.10
2022-10-26T11:21:00.503Z,1.33
2022-10-26T11:25:56.384Z,1.40
2022-10-26T11:30:52.666Z,1.52
2022-10-26T11:35:49.139Z,1.20
2022-10-26T11:40:45.211Z,0.98
2022-10-26T11:45:40.477Z,0.80
2022-10-26T11:50:38.744Z,0.90
2022-10-26T11:55:28.768Z,0.77
2022-10-26T12:00:20.881Z,0.75
2022-10-26T12:05:21.944Z,0.67
2022-10-26T12:10:25.062Z,1.00
2022-10-26T12:15:30.964Z,0.70
2022-10-26T12:21:05.297Z,0.80
2022-10-26T12:26:32.338Z,0.60
2022-10-26T12:31:44.212Z,0.80
2022-10-26T12:36:52.482Z,0.90
2022-10-26T12:41:59.251Z,0.50
2022-10-26T12:46:48.989Z,0.75
2022-10-26T12:51:45.881Z,0.50
2022-10-26T12:56:44.827Z,0.77
2022-10-26T13:01:53.272Z,0.70
2022-10-26T13:07:12.223Z,0.50
2022-10-26T13:12:05.359Z,0.70
2022-10-26T13:16:58.141Z,0.50
2022-10-26T13:21:51.687Z,0.50
2022-10-26T13:27:28.958Z,0.40
2022-10-26T13:32:22.352Z,0.50
2022-10-26T13:37:22.964Z,0.40
2022-10-26T13:42:18.447Z,0.40
2022-10-26T13:47:13.597Z,0.40
2022-10-26T13:52:08.900Z,0.40
2022-10-26T13:57:07.073Z,0.30
2022-10-26T14:02:09.211Z,0.40
2022-10-26T14:06:58.943Z,0.30
2022-10-26T14:11:55.418Z,0.35
2022-10-26T14:16:46.658Z,0.60
2022-10-26T14:21:36.371Z,0.35
2022-10-26T14:26:28.534Z,0.50
2022-10-26T14:31:30.696Z,0.40
2022-10-26T14:36:22.778Z,0.30
2022-10-26T14:41:13.487Z,0.30
2022-10-26T14:46:03.285Z,0.50
2022-10-26T14:51:12.132Z,0.30
2022-10-26T14:56:04.583Z,0.50
2022-10-26T15:01:19.225Z,0.60
2022-10-26T15:06:46.245Z,0.52
2022-10-26T15:11:44.900Z,0.40
2022-10-26T15:16:37.759Z,0.40
2022-10-26T15:21:33.820Z,0.40
2022-10-26T15:26:27.370Z,0.30
2022-10-26T15:31:35.722Z,0.60
2022-10-26T15:36:31.223Z,0.40
2022-10-26T15:41:28.650Z,0.40
2022-10-26T15:46:20.767Z,0.40
2022-10-26T15:51:16.167Z,0.30
2022-10-26T15:56:12.451Z,0.40
2022-10-26T16:01:08.014Z,0.40
2022-10-26T16:06:01.401Z,0.40
2022-10-26T16:10:51.183Z,0.40
2022-10-26T16:15:41.191Z,0.45
2022-10-26T16:20:34.225Z,0.30
2022-10-26T16:25:26.035Z,0.50
2022-10-26T16:30:16.758Z,0.40
2022-10-26T16:35:06.823Z,0.55
2022-10-26T16:40:00.033Z,0.40
2022-10-26T16:44:51.040Z,0.60
2022-10-26T16:49:43.656Z,0.40
2022-10-26T16:54:36.941Z,0.80
2022-10-26T16:59:29.462Z,0.70
2022-10-26T17:04:20.276Z,0.60
2022-10-26T17:09:10.810Z,1.45
2022-10-26T17:14:01.275Z,0.60
2022-10-26T17:18:54.833Z,0.40
2022-10-26T17:23:45.791Z,0.40
2022-10-26T17:28:36.711Z,0.88
2022-10-26T17:33:28.230Z,0.52
2022-10-26T17:38:21.636Z,0.98
2022-10-26T17:43:11.457Z,0.55
